Weather observations for the past three days for
Appleton-Outagamie
| Date | Time (cdt) | Wind (mph) | Vis. (mi.) | Weather | Sky Cond. | Temperature (ºF) | Relative Humidity | Wind Chill (°F) | Heat Index (°F) | Pressure | Precipitation (in) | ||||||
|---|---|---|---|---|---|---|---|---|---|---|---|---|---|---|---|---|---|
| Air | Dwpt | 6 hour | altimeter (in) | sea level (mb) | 1 hr | 3 hr | 6 hr | ||||||||||
| Max. | Min. | ||||||||||||||||
| 10 | 14:45 | W 16 G 25 | 10.00 | Mostly Cloudy | BKN070 | 59 | 28.4 | 31% | 30.07 | 0.0 | |||||||
| 10 | 13:45 | NW 16 G 25 | 10.00 | Mostly Cloudy | BKN065 | 57.2 | 28.4 | 33% | 30.07 | 0.0 | |||||||
| 10 | 12:45 | W 18 G 28 | 10.00 | Mostly Cloudy | BKN065 | 55.4 | 28.4 | 36% | 30.06 | 0.0 | |||||||
| 10 | 11:45 | W 18 G 28 | 10.00 | Mostly Cloudy | BKN075 | 57.2 | 26.6 | 31% | 30.06 | 0.0 | |||||||
| 10 | 10:45 | W 10 G 23 | 10.00 | Mostly Cloudy | BKN075 | 55.4 | 28.4 | 36% | 30.06 | 0.0 | |||||||
| 10 | 09:45 | SW 9 | 10.00 | Mostly Cloudy | BKN070 | 53.6 | 30.2 | 41% | 30.06 | 0.0 | |||||||
| 10 | 08:45 | W 8 | 10.00 | Partly Cloudy | SCT048 | 50 | 30.2 | 47% | 47 | 30.05 | 0.0 | ||||||
| 10 | 07:45 | SW 9 | 10.00 | Mostly Cloudy | BKN110 | 48.2 | 30.2 | 50% | 45 | 30.04 | 0.0 | ||||||
| 10 | 06:45 | SW 9 | 10.00 | Fair | CLR | 42.8 | 28.4 | 57% | 38 | 30.03 | 0.0 | ||||||
| 10 | 05:45 | W 8 | 10.00 | Fair | CLR | 39.2 | 28.4 | 65% | 34 | 30.01 | 0.0 | ||||||
| 10 | 05:15 | W 7 | 10.00 | Fair | CLR | 39.2 | 30.2 | 70% | 35 | 30 | 0.0 | ||||||
| 10 | 04:55 | W 8 | 10.00 | Fair | CLR | 37.4 | 28.4 | 70% | 32 | 30 | 0.0 | ||||||
| 10 | 04:35 | W 7 | 10.00 | Fair | CLR | 39.2 | 28.4 | 65% | 35 | 29.99 | 0.0 | ||||||
| 10 | 04:15 | W 7 | 10.00 | Partly Cloudy | SCT080 | 37.4 | 28.4 | 70% | 33 | 29.98 | 0.0 | ||||||
| 10 | 03:55 | W 7 | 10.00 | Mostly Cloudy | BKN080 | 37.4 | 28.4 | 70% | 33 | 29.98 | 0.0 | ||||||
| 10 | 03:35 | W 7 | 10.00 | Overcast | OVC080 | 41 | 28.4 | 61% | 37 | 29.97 | 0.0 | ||||||
| 10 | 03:15 | W 7 | 10.00 | Mostly Cloudy | BKN080 | 41 | 28.4 | 61% | 37 | 29.96 | 0.0 | ||||||
| 10 | 02:55 | W 7 | 10.00 | Partly Cloudy | SCT080 | 39.2 | 28.4 | 65% | 35 | 29.96 | 0.0 | ||||||
| 10 | 02:35 | NW 7 | 10.00 | Partly Cloudy | SCT090 | 41 | 26.6 | 57% | 37 | 29.95 | 0.0 | ||||||
| 10 | 02:15 | NW 6 | 10.00 | Mostly Cloudy | BKN090 | 41 | 26.6 | 57% | 38 | 29.95 | 0.0 | ||||||
| 10 | 01:55 | NW 5 | 10.00 | Partly Cloudy | SCT090 | 41 | 26.6 | 57% | 38 | 29.94 | 0.0 | ||||||
| 10 | 01:35 | NW 5 | 10.00 | Fair | CLR | 41 | 26.6 | 57% | 38 | 29.94 | 0.0 | ||||||
| 10 | 01:15 | NW 6 | 10.00 | Fair | CLR | 41 | 26.6 | 57% | 38 | 29.94 | 0.0 | ||||||
| 10 | 00:55 | N 5 | 10.00 | Fair | CLR | 41 | 26.6 | 57% | 38 | 29.94 | 0.0 | ||||||
| 10 | 00:35 | N 5 | 10.00 | Fair | CLR | 42.8 | 26.6 | 53% | 41 | 29.93 | 0.0 | ||||||
| 10 | 00:15 | N 3 | 10.00 | Fair | CLR | 42.8 | 26.6 | 53% | 29.92 | 0.0 | |||||||
| 09 | 23:55 | N 3 | 10.00 | Fair | CLR | 42.8 | 26.6 | 53% | 29.92 | 0.0 | |||||||
| 09 | 23:35 | N 5 | 10.00 | Fair | CLR | 44.6 | 28.4 | 53% | 43 | 29.91 | 0.0 | ||||||
| 09 | 23:15 | Calm | 10.00 | Fair | CLR | 46.4 | 26.6 | 46% | 29.9 | 0.0 | |||||||
| 09 | 22:55 | Calm | 10.00 | Fair | CLR | 46.4 | 26.6 | 46% | 29.9 | 0.0 | |||||||
| 09 | 22:45 | N 3 | 10.00 | Partly Cloudy | SCT100 | 46.4 | 26.6 | 46% | 29.9 | 0.0 | |||||||
| 09 | 21:45 | N 8 | 10.00 | Partly Cloudy | SCT100 | 50 | 26.6 | 40% | 47 | 29.89 | 0.0 | ||||||
| 09 | 20:45 | N 10 | 10.00 | Partly Cloudy | SCT100 | 53.6 | 26.6 | 35% | 29.83 | 0.0 | |||||||
| 09 | 19:45 | N 10 | 10.00 | Partly Cloudy | SCT100 | 57.2 | 24.8 | 29% | 29.78 | 0.0 | |||||||
| 09 | 18:45 | NW 13 G 23 | 10.00 | Mostly Cloudy | BKN090 | 60.8 | 23 | 23% | 29.75 | 0.0 | |||||||
| 09 | 17:45 | W 21 | 10.00 | Mostly Cloudy and Breezy | BKN090 | 62.6 | 24.8 | 24% | 29.72 | 0.0 | |||||||
| 09 | 16:45 | NW 18 G 28 | 10.00 | Mostly Cloudy | BKN080 | 60.8 | 28.4 | 29% | 29.7 | 0.0 | |||||||
| 09 | 15:45 | NW 18 G 26 | 10.00 | Mostly Cloudy | BKN070 | 60.8 | 30.2 | 31% | 29.68 | 0.0 | |||||||
| 09 | 14:45 | W 20 G 26 | 10.00 | Mostly Cloudy | BKN070 | 62.6 | 35.6 | 37% | 29.66 | 0.0 | |||||||
| 09 | 13:45 | NW 16 G 23 | 10.00 | Overcast | SCT047 OVC060 | 59 | 37.4 | 45% | 29.65 | 0.0 | |||||||
| 09 | 12:45 | W 20 G 28 | 10.00 | Partly Cloudy | SCT037 | 60.8 | 42.8 | 52% | 29.64 | 0.0 | |||||||
| 09 | 11:45 | W 15 G 28 | 10.00 | Partly Cloudy | SCT039 | 55.4 | 39.2 | 55% | 29.63 | 0.0 | |||||||
| 09 | 10:45 | NW 10 | 10.00 | Overcast | OVC070 | 55.4 | 35.6 | 47% | 29.62 | 0.0 | |||||||
| 09 | 09:45 | NW 12 | 10.00 | Overcast | OVC070 | 55.4 | 35.6 | 47% | 29.6 | 0.0 | |||||||
| 09 | 08:45 | W 12 | 10.00 | Overcast | SCT075 OVC100 | 53.6 | 33.8 | 47% | 29.6 | 0.0 | |||||||
| 09 | 07:45 | W 12 | 10.00 | Mostly Cloudy | BKN100 | 51.8 | 33.8 | 50% | 29.57 | 0.0 | |||||||
| 09 | 06:45 | W 12 | 10.00 | Mostly Cloudy | BKN120 | 51.8 | 33.8 | 50% | 29.54 | 0.0 | |||||||
| 09 | 05:45 | W 12 | 10.00 | Mostly Cloudy | BKN120 | 51.8 | 33.8 | 50% | 29.51 | 0.0 | |||||||
| 09 | 05:15 | W 12 | 10.00 | Fair | CLR | 51.8 | 33.8 | 50% | 29.51 | 0.0 | |||||||
| 09 | 04:55 | W 10 | 10.00 | Fair | CLR | 51.8 | 33.8 | 50% | 29.51 | 0.0 | |||||||
| 09 | 04:35 | W 12 | 10.00 | Fair | CLR | 53.6 | 35.6 | 51% | 29.5 | 0.0 | |||||||
| 09 | 04:15 | SW 9 | 10.00 | Fair | CLR | 51.8 | 35.6 | 54% | 29.49 | 0.0 | |||||||
| 09 | 03:55 | SW 9 | 10.00 | Fair | CLR | 50 | 37.4 | 62% | 47 | 29.49 | 0.0 | ||||||
| 09 | 03:35 | SW 8 | 10.00 | Fair | CLR | 50 | 37.4 | 62% | 47 | 29.5 | 0.0 | ||||||
| 09 | 03:15 | SW 8 | 10.00 | Fair | CLR | 50 | 37.4 | 62% | 47 | 29.5 | 0.0 | ||||||
| 09 | 02:55 | SW 8 | 10.00 | Fair | CLR | 50 | 39.2 | 67% | 47 | 29.5 | 0.0 | ||||||
| 09 | 02:35 | S 6 | 10.00 | Fair | CLR | 50 | 41 | 71% | 48 | 29.51 | 0.0 | ||||||
| 09 | 02:15 | S 6 | 10.00 | Fair | CLR | 51.8 | 41 | 67% | 29.51 | 0.0 | |||||||
| 09 | 01:55 | S 6 | 10.00 | Fair | CLR | 50 | 41 | 71% | 48 | 29.52 | 0.0 | ||||||
| 09 | 01:30 | S 6 | 10.00 | Fair | CLR | 51.8 | 41 | 67% | 29.53 | 0.0 | |||||||
| 09 | 01:15 | SE 6 | 10.00 | Fair | CLR | 53.6 | 39.2 | 58% | 29.54 | 0.0 | |||||||
| 09 | 00:55 | SE 6 | 10.00 | Partly Cloudy | SCT110 | 53.6 | 37.4 | 54% | 29.55 | 0.0 | |||||||
| 09 | 00:35 | S 6 | 10.00 | Mostly Cloudy | BKN110 | 53.6 | 35.6 | 51% | 29.56 | 0.0 | |||||||
| 09 | 00:15 | SE 6 | 10.00 | Partly Cloudy | SCT110 | 57.2 | 32 | 39% | 29.56 | 0.0 | |||||||
| 08 | 23:55 | Calm | 10.00 | Mostly Cloudy | BKN110 | 55.4 | 35.6 | 47% | 29.57 | 0.0 | |||||||
| 08 | 23:35 | S 3 | 10.00 | Mostly Cloudy | BKN110 | 59 | 32 | 36% | 29.57 | 0.0 | |||||||
| 08 | 23:15 | S 6 | 10.00 | Mostly Cloudy | BKN110 | 59 | 33.8 | 39% | 29.59 | 0.0 | |||||||
| 08 | 22:55 | Calm | 10.00 | Mostly Cloudy | SCT075 BKN110 | 59 | 32 | 36% | 29.59 | 0.0 | |||||||
| 08 | 22:45 | Calm | 10.00 | Mostly Cloudy | BKN080 | 60.8 | 30.2 | 31% | 29.59 | 0.0 | |||||||
| 08 | 21:45 | Calm | 10.00 | Mostly Cloudy | BKN080 | 60.8 | 30.2 | 31% | 29.62 | 0.0 | |||||||
| 08 | 20:45 | W 6 | 10.00 | Mostly Cloudy | BKN095 | 60.8 | 32 | 34% | 29.62 | 0.0 | |||||||
| 08 | 19:45 | SW 10 G 20 | 10.00 | Mostly Cloudy | BKN080 | 62.6 | 33.8 | 34% | 29.62 | 0.0 | |||||||
| 08 | 18:45 | W 6 | 10.00 | Mostly Cloudy | BKN100 | 64.4 | 30.2 | 28% | 29.62 | 0.0 | |||||||
| 08 | 17:45 | SW 14 G 20 | 10.00 | Partly Cloudy | SCT110 | 66.2 | 26.6 | 22% | 29.63 | 0.0 | |||||||
| 08 | 16:45 | SW 10 G 20 | 10.00 | Mostly Cloudy | BKN110 | 66.2 | 28.4 | 24% | 29.65 | 0.0 | |||||||
| 08 | 15:45 | W 9 | 10.00 | Mostly Cloudy | BKN110 | 66.2 | 28.4 | 24% | 29.67 | 0.0 | |||||||
| 08 | 14:45 | W 13 G 18 | 10.00 | Mostly Cloudy | BKN100 | 66.2 | 28.4 | 24% | 29.69 | 0.0 | |||||||
| 08 | 13:45 | W 17 G 29 | 10.00 | Mostly Cloudy | SCT065 BKN095 | 64.4 | 26.6 | 24% | 29.71 | 0.0 | |||||||
| 08 | 12:45 | SW 17 G 23 | 10.00 | Partly Cloudy | SCT095 | 64.4 | 28.4 | 26% | 29.74 | 0.0 | |||||||
| 08 | 11:45 | SW 14 G 21 | 10.00 | Partly Cloudy | SCT085 | 62.6 | 30.2 | 30% | 29.77 | 0.0 | |||||||
| 08 | 10:45 | SW 12 G 18 | 10.00 | Partly Cloudy | SCT120 | 60.8 | 28.4 | 29% | 29.78 | 0.0 | |||||||
| 08 | 09:45 | SW 13 | 10.00 | Partly Cloudy | SCT120 | 57.2 | 30.2 | 36% | 29.8 | 0.0 | |||||||
| 08 | 08:45 | SW 10 | 10.00 | Partly Cloudy | SCT120 | 53.6 | 33.8 | 47% | 29.81 | 0.0 | |||||||
| 08 | 07:45 | SW 10 | 10.00 | Partly Cloudy | SCT120 | 46.4 | 35.6 | 66% | 42 | 29.81 | 0.0 | ||||||
| 08 | 06:45 | SW 6 | 10.00 | Fair | CLR | 42.8 | 35.6 | 76% | 40 | 29.8 | 0.0 | ||||||
| 08 | 05:45 | SW 7 | 10.00 | Fair | CLR | 37.4 | 33.8 | 87% | 33 | 29.8 | 0.0 | ||||||
| 08 | 05:15 | SW 7 | 10.00 | Fair | CLR | 35.6 | 32 | 87% | 31 | 29.8 | 0.0 | ||||||
| 08 | 04:55 | SW 8 | 10.00 | Fair | CLR | 35.6 | 32 | 87% | 30 | 29.8 | 0.0 | ||||||
| 08 | 04:35 | SW 7 | 10.00 | Fair | CLR | 37.4 | 32 | 81% | 33 | 29.8 | 0.0 | ||||||
| 08 | 04:15 | SW 8 | 10.00 | Fair | CLR | 37.4 | 32 | 81% | 32 | 29.8 | 0.0 | ||||||
| 08 | 03:55 | SW 8 | 10.00 | Fair | CLR | 35.6 | 32 | 87% | 30 | 29.81 | 0.0 | ||||||
| 08 | 03:35 | SW 7 | 10.00 | Fair | CLR | 37.4 | 32 | 81% | 33 | 29.81 | 0.0 | ||||||
| 08 | 03:15 | S 5 | 10.00 | Fair | CLR | 35.6 | 32 | 87% | 32 | 29.81 | 0.0 | ||||||
| 08 | 02:55 | S 5 | 10.00 | Fair | CLR | 37.4 | 32 | 81% | 34 | 29.82 | 0.0 | ||||||
| 08 | 02:35 | S 5 | 10.00 | Fair | CLR | 37.4 | 32 | 81% | 34 | 29.83 | 0.0 | ||||||
| 08 | 02:15 | S 5 | 10.00 | Fair | CLR | 37.4 | 32 | 81% | 34 | 29.83 | 0.0 | ||||||
| 08 | 01:55 | S 6 | 10.00 | Fair | CLR | 39.2 | 32 | 75% | 36 | 29.84 | 0.0 | ||||||
| 08 | 01:35 | S 6 | 10.00 | Fair | CLR | 37.4 | 32 | 81% | 33 | 29.84 | 0.0 | ||||||
| 08 | 01:15 | S 7 | 10.00 | Fair | CLR | 37.4 | 32 | 81% | 33 | 29.84 | 0.0 | ||||||
| 08 | 00:55 | S 9 | 10.00 | Fair | CLR | 41 | 32 | 70% | 36 | 29.85 | 0.0 | ||||||
| 08 | 00:35 | S 7 | 10.00 | Fair | CLR | 39.2 | 32 | 75% | 35 | 29.85 | 0.0 | ||||||
| 08 | 00:15 | S 6 | 10.00 | Fair | CLR | 39.2 | 32 | 75% | 36 | 29.85 | 0.0 | ||||||
| 07 | 23:55 | S 7 | 10.00 | Fair | CLR | 41 | 32 | 70% | 37 | 29.85 | 0.0 | ||||||
| 07 | 23:35 | S 6 | 10.00 | Fair | CLR | 41 | 28.4 | 61% | 38 | 29.85 | 0.0 | ||||||
| 07 | 23:15 | SW 3 | 10.00 | Fair | CLR | 44.6 | 23 | 43% | 29.86 | 0.0 | |||||||
| 07 | 22:55 | SW 3 | 10.00 | Fair | CLR | 44.6 | 24.8 | 46% | 29.85 | 0.0 | |||||||
| 07 | 22:45 | Calm | 10.00 | Fair | CLR | 46.4 | 23 | 40% | 29.85 | 0.0 | |||||||
| 07 | 21:45 | Calm | 10.00 | Fair | CLR | 46.4 | 24.8 | 43% | 29.85 | 0.0 | |||||||
| 07 | 20:45 | Calm | 10.00 | Partly Cloudy | SCT085 | 48.2 | 24.8 | 40% | 29.84 | 0.0 | |||||||
| 07 | 19:45 | N 7 | 10.00 | Mostly Cloudy | BKN075 | 51.8 | 26.6 | 38% | 29.83 | 0.0 | |||||||
| 07 | 18:45 | NW 9 | 10.00 | Mostly Cloudy | BKN070 | 53.6 | 24.8 | 33% | 29.82 | 0.0 | |||||||
| 07 | 17:45 | W 7 | 10.00 | Mostly Cloudy | BKN065 | 55.4 | 26.6 | 33% | 29.82 | 0.0 | |||||||
| 07 | 16:45 | W 9 | 10.00 | Mostly Cloudy | BKN075 | 53.6 | 28.4 | 38% | 29.82 | 0.0 | |||||||
| 07 | 15:45 | SW 5 | 10.00 | Mostly Cloudy | BKN060 | 53.6 | 30.2 | 41% | 29.83 | 0.0 | |||||||
| Date | Time (cdt) | Wind (mph) | Vis. (mi.) | Weather | Sky Cond. | Air | Dwpt | Max. | Min. | Relative Humidity | Wind Chill (°F) | Heat Index (°F) | altimeter (in) | sea level (mb) | 1 hr | 3 hr | 6 hr |
| 6 hour | |||||||||||||||||
| Temperature (ºF) | Pressure | Precipitation (in) | |||||||||||||||